Time;durP1;ratioP1;P1;durP2;ratioP2;P2;SDS_P1;SDS_P2;PMS_P1;PMS_P2;Temp;Humidity;BMP_temperature;BMP_pressure;BME280_temperature;BME280_humidity;BME280_pressure;Samples;Min_cycle;Max_cycle;Signal;HPM_P1;HPM_P2
2021/06/30 00:01:13;;;;;;;4.28;2.67;;;;;;;17.04;85.12;100072.66;20659162;28;20053;-73
2021/06/30 00:11:21;;;;;;;5.43;2.45;;;;;;;17.01;84.81;100064.88;20658715;28;20046;-73
2021/06/30 00:21:28;;;;;;;6.13;2.45;;;;;;;16.95;85.27;100062.50;20658488;28;20628;-73
2021/06/30 00:31:35;;;;;;;4.53;2.85;;;;;;;16.93;84.63;100080.25;20658218;28;20042;-74
2021/06/30 00:41:43;;;;;;;4.78;2.72;;;;;;;16.83;84.74;100087.75;20657694;28;20413;-72
2021/06/30 00:51:50;;;;;;;7.22;2.70;;;;;;;16.68;83.80;100080.50;20666527;28;20050;-73
2021/06/30 01:01:52;;;;;;;3.92;2.13;;;;;;;16.62;83.44;100084.31;20673042;28;20058;-73
2021/06/30 01:12:00;;;;;;;5.20;1.80;;;;;;;16.47;83.38;100077.03;20673704;28;20057;-73
2021/06/30 01:22:08;;;;;;;3.67;1.50;;;;;;;16.46;83.09;100077.13;20672073;28;20050;-74
2021/06/30 01:32:15;;;;;;;6.18;1.30;;;;;;;16.48;82.45;100070.84;20668155;28;20038;-72
2021/06/30 01:42:21;;;;;;;5.28;1.30;;;;;;;16.41;82.14;100091.41;20670154;28;20054;-73
2021/06/30 01:52:29;;;;;;;3.08;1.20;;;;;;;16.30;81.52;100103.38;20668171;28;20061;-73
2021/06/30 02:02:36;;;;;;;1.75;0.90;;;;;;;16.25;81.04;100116.78;20667310;28;20051;-74
2021/06/30 02:12:44;;;;;;;4.50;0.88;;;;;;;16.01;80.12;100109.91;20667768;28;20055;-73
2021/06/30 02:22:52;;;;;;;2.60;0.50;;;;;;;15.95;79.93;100118.09;20666645;28;20051;-73
2021/06/30 02:33:01;;;;;;;2.85;0.80;;;;;;;16.00;78.98;100126.66;20666294;28;20050;-72
2021/06/30 02:43:08;;;;;;;2.08;0.90;;;;;;;15.75;79.77;100113.66;20665228;28;20046;-72
2021/06/30 02:53:16;;;;;;;3.00;0.90;;;;;;;15.93;80.00;100127.88;20664557;28;20050;-73
2021/06/30 03:03:23;;;;;;;4.65;0.90;;;;;;;15.86;80.52;100119.34;20664099;28;20401;-72
2021/06/30 03:13:29;;;;;;;4.28;0.73;;;;;;;15.84;81.84;100124.69;20662617;28;20134;-73
2021/06/30 03:23:36;;;;;;;1.50;0.60;;;;;;;15.71;82.77;100127.88;20662389;28;20062;-73
2021/06/30 03:33:43;;;;;;;1.83;0.80;;;;;;;15.76;84.04;100128.56;20661373;28;20051;-73
2021/06/30 03:43:50;;;;;;;2.95;1.05;;;;;;;15.76;84.99;100133.84;20660389;28;20051;-72
2021/06/30 03:53:57;;;;;;;3.25;1.00;;;;;;;15.72;83.91;100148.09;20660273;28;20054;-72
2021/06/30 04:04:06;;;;;;;2.22;1.00;;;;;;;15.65;82.89;100147.47;20659465;28;20069;-72
2021/06/30 04:14:14;;;;;;;2.30;0.80;;;;;;;15.69;81.80;100137.66;20658754;28;20062;-72
2021/06/30 04:24:21;;;;;;;2.20;0.80;;;;;;;15.50;83.07;100133.09;20657852;28;20416;-72
2021/06/30 04:34:28;;;;;;;1.80;0.90;;;;;;;15.53;81.51;100143.53;20658325;28;20720;-72
2021/06/30 04:44:34;;;;;;;2.95;0.85;;;;;;;15.59;81.28;100148.56;20658014;28;20497;-72
2021/06/30 04:54:41;;;;;;;5.07;0.82;;;;;;;15.59;81.40;100153.84;20657176;28;20112;-73
2021/06/30 05:04:48;;;;;;;1.60;0.70;;;;;;;15.60;81.08;100139.72;20657637;28;20382;-73
2021/06/30 05:14:55;;;;;;;2.95;0.50;;;;;;;15.73;80.78;100133.97;20656828;28;20046;-73
2021/06/30 05:25:02;;;;;;;1.83;0.77;;;;;;;15.84;79.87;100137.03;20656353;28;20053;-73
2021/06/30 05:35:09;;;;;;;2.40;0.75;;;;;;;15.83;80.77;100151.16;20659884;28;20126;-73
2021/06/30 05:45:16;;;;;;;2.15;0.82;;;;;;;15.96;79.58;100151.50;20669594;28;20419;-73
2021/06/30 05:55:23;;;;;;;2.08;1.05;;;;;;;15.94;79.92;100153.34;20669594;28;20050;-72
2021/06/30 06:05:30;;;;;;;3.17;0.90;;;;;;;16.11;79.68;100161.44;20668454;28;20440;-72
2021/06/30 06:15:37;;;;;;;4.30;1.25;;;;;;;16.01;78.54;100168.03;20667432;28;20492;-72
2021/06/30 06:25:43;;;;;;;3.40;1.00;;;;;;;16.17;78.64;100172.56;20665811;28;20073;-72
2021/06/30 06:35:52;;;;;;;1.90;0.85;;;;;;;16.16;77.87;100162.94;20666439;28;20049;-72
2021/06/30 06:45:58;;;;;;;2.72;0.88;;;;;;;16.16;77.54;100165.59;20664072;28;20595;-72
2021/06/30 06:56:10;;;;;;;2.83;0.90;;;;;;;16.12;80.06;100169.28;20664570;28;20061;-72
2021/06/30 07:06:17;;;;;;;1.65;0.80;;;;;;;16.17;80.32;100172.56;20648235;28;20046;-72
2021/06/30 07:16:24;;;;;;;1.88;0.90;;;;;;;16.54;79.49;100176.28;20628928;28;20054;-71
2021/06/30 07:26:30;;;;;;;1.45;0.77;;;;;;;16.41;77.65;100198.88;20661471;28;20053;-71
2021/06/30 07:36:37;;;;;;;1.70;0.70;;;;;;;16.13;78.64;100200.03;20655875;28;20042;-70
2021/06/30 07:46:43;;;;;;;3.08;0.90;;;;;;;16.09;81.34;100208.16;20671826;28;20099;-71
2021/06/30 07:56:45;;;;;;;1.42;0.82;;;;;;;16.23;82.43;100207.59;20662716;28;20445;-71
2021/06/30 08:06:48;;;;;;;2.08;1.10;;;;;;;16.11;81.77;100216.91;20657498;28;20467;-70
2021/06/30 08:16:50;;;;;;;2.63;0.82;;;;;;;16.24;81.61;100219.84;20656930;28;20054;-70
2021/06/30 08:26:53;;;;;;;1.73;0.95;;;;;;;15.87;84.78;100221.41;20657857;28;20050;-69
2021/06/30 08:37:02;;;;;;;2.65;1.30;;;;;;;15.84;84.66;100216.22;20655198;28;20038;-70
2021/06/30 08:47:05;;;;;;;3.97;1.30;;;;;;;15.60;83.83;100207.47;20656440;28;20054;-70
2021/06/30 08:57:06;;;;;;;3.10;1.58;;;;;;;15.62;84.95;100217.06;20655557;28;20046;-70
2021/06/30 09:07:08;;;;;;;2.97;1.38;;;;;;;15.50;85.21;100220.16;20655073;28;20560;-69
2021/06/30 09:17:22;;;;;;;5.50;1.45;;;;;;;15.61;85.60;100219.75;20670693;28;20050;-69
2021/06/30 09:27:45;;;;;;;4.40;1.60;;;;;;;15.70;86.09;100218.56;20670317;28;20096;-70
2021/06/30 09:37:48;;;;;;;3.15;1.40;;;;;;;15.83;85.39;100218.00;20652085;28;20061;-71
2021/06/30 09:47:52;;;;;;;2.17;1.30;;;;;;;16.30;85.31;100209.06;20664805;28;20050;-68
2021/06/30 09:57:54;;;;;;;6.28;1.45;;;;;;;16.90;81.81;100209.97;20667659;28;20074;-68
2021/06/30 10:08:12;;;;;;;5.07;1.20;;;;;;;17.08;81.16;100201.22;20662553;28;20468;-68
2021/06/30 10:18:14;;;;;;;3.40;1.10;;;;;;;17.70;80.14;100197.41;20666286;28;20059;-69
2021/06/30 10:28:19;;;;;;;2.20;1.10;;;;;;;18.13;76.12;100174.13;20665089;28;20046;-69
2021/06/30 10:38:21;;;;;;;1.63;0.98;;;;;;;18.40;74.50;100174.50;20665034;28;20050;-70
2021/06/30 10:48:23;;;;;;;2.17;0.90;;;;;;;19.43;69.92;100163.69;20665552;28;20050;-70
2021/06/30 10:59:00;;;;;;;1.58;0.82;;;;;;;18.36;74.24;100162.34;20663254;28;20129;-70
2021/06/30 11:09:23;;;;;;;2.17;0.90;;;;;;;18.04;76.73;100166.63;20663240;28;20043;-69
2021/06/30 11:19:24;;;;;;;2.88;1.00;;;;;;;17.83;77.45;100162.41;20663013;28;20054;-69
2021/06/30 11:29:50;;;;;;;2.42;0.90;;;;;;;17.87;77.63;100156.91;20645095;28;20121;-70
2021/06/30 11:40:02;;;;;;;1.65;0.88;;;;;;;18.77;68.80;100148.72;20641554;28;20152;-69
2021/06/30 11:50:06;;;;;;;3.55;0.70;;;;;;;19.78;68.59;100134.28;20657866;28;20046;-69
2021/06/30 12:00:11;;;;;;;2.85;0.77;;;;;;;20.35;62.92;100126.47;20659178;28;20190;-70
2021/06/30 12:10:14;;;;;;;2.92;0.85;;;;;;;19.92;63.81;100137.00;20657700;28;20104;-70
2021/06/30 12:20:18;;;;;;;1.30;0.77;;;;;;;19.93;63.20;100141.38;20664217;28;20050;-70
2021/06/30 12:30:29;;;;;;;2.27;0.80;;;;;;;20.31;62.34;100130.25;20681953;28;20096;-71
2021/06/30 12:40:32;;;;;;;2.47;0.82;;;;;;;20.03;64.68;100125.75;20643522;28;20390;-70
2021/06/30 12:50:44;;;;;;;1.45;0.80;;;;;;;20.08;63.67;100124.53;20670772;28;20105;-71
2021/06/30 13:01:00;;;;;;;1.58;0.70;;;;;;;19.46;64.23;100121.91;20673094;28;20050;-68
2021/06/30 13:11:09;;;;;;;4.00;0.95;;;;;;;19.43;71.67;100126.53;20672265;28;20046;-69
2021/06/30 13:21:12;;;;;;;1.83;0.90;;;;;;;20.25;67.55;100110.22;20671359;28;20112;-69
2021/06/30 13:41:48;;;;;;;2.83;0.70;;;;;;;19.92;65.10;100108.63;20669489;28;20504;-69
2021/06/30 13:51:50;;;;;;;1.17;0.75;;;;;;;19.83;64.03;100100.34;20668520;28;20046;-69
2021/06/30 14:01:52;;;;;;;0.93;0.70;;;;;;;19.87;63.74;100083.28;20666564;28;20050;-69
2021/06/30 14:11:55;;;;;;;0.80;0.30;;;;;;;19.39;64.36;100103.75;20666588;28;20113;-70
2021/06/30 14:21:57;;;;;;;2.05;0.50;;;;;;;18.66;73.81;100113.94;20666677;28;20100;-70
2021/06/30 14:31:59;;;;;;;2.67;0.60;;;;;;;18.24;76.98;100101.16;20663127;28;20046;-69
2021/06/30 14:42:01;;;;;;;1.20;0.50;;;;;;;18.42;78.14;100102.84;20665026;28;20042;-68
2021/06/30 14:52:04;;;;;;;1.88;0.60;;;;;;;18.53;74.91;100100.47;20663842;28;20078;-68
2021/06/30 15:02:06;;;;;;;0.70;0.40;;;;;;;18.88;73.89;100098.63;20662823;28;20053;-67
2021/06/30 15:12:08;;;;;;;1.80;0.40;;;;;;;18.45;74.85;100110.66;20641527;28;20492;-68
2021/06/30 15:22:11;;;;;;;0.82;0.47;;;;;;;19.44;73.91;100099.03;20660491;28;20100;-68
2021/06/30 15:32:14;;;;;;;1.42;0.20;;;;;;;19.30;70.88;100109.56;20661053;28;20046;-69
2021/06/30 15:42:16;;;;;;;1.33;0.40;;;;;;;19.07;71.10;100095.81;20660602;28;20050;-68
2021/06/30 15:52:18;;;;;;;1.48;0.60;;;;;;;19.85;69.65;100087.84;20659581;28;20100;-69
2021/06/30 16:02:25;;;;;;;3.05;0.55;;;;;;;19.83;67.78;100087.06;20659495;28;20042;-70
2021/06/30 16:12:28;;;;;;;1.58;0.60;;;;;;;19.89;67.68;100086.72;20658622;28;20138;-70
2021/06/30 16:22:30;;;;;;;1.45;0.70;;;;;;;19.39;69.16;100088.66;20657593;28;20050;-70
2021/06/30 16:32:33;;;;;;;1.42;0.50;;;;;;;19.28;70.37;100091.09;20657358;28;20109;-69
2021/06/30 16:42:36;;;;;;;2.03;0.40;;;;;;;19.55;70.48;100078.03;20657741;28;20073;-70
2021/06/30 16:52:38;;;;;;;1.20;0.40;;;;;;;18.98;70.85;100084.84;20656161;28;20657;-71
2021/06/30 17:02:41;;;;;;;0.90;0.50;;;;;;;18.75;68.70;100096.72;20672865;28;20608;-71
2021/06/30 17:12:43;;;;;;;0.75;0.20;;;;;;;18.22;71.19;100101.25;20676302;28;20113;-71
2021/06/30 17:22:47;;;;;;;0.60;0.40;;;;;;;17.97;72.54;100109.59;20646902;28;20050;-70
2021/06/30 17:32:54;;;;;;;2.60;1.08;;;;;;;18.01;73.05;100120.88;20649627;28;20050;-70
2021/06/30 17:42:56;;;;;;;1.25;0.40;;;;;;;17.85;73.12;100123.47;20668898;28;20520;-70
2021/06/30 17:52:58;;;;;;;2.53;0.60;;;;;;;17.45;74.90;100149.22;20669054;28;20054;-70
2021/06/30 18:03:02;;;;;;;2.72;0.90;;;;;;;17.12;75.78;100147.22;20668514;28;20104;-69
2021/06/30 18:13:05;;;;;;;2.53;1.10;;;;;;;17.02;76.15;100167.09;20667280;28;20055;-69
2021/06/30 18:23:08;;;;;;;2.30;1.00;;;;;;;16.94;77.11;100174.53;20666437;28;20050;-69
2021/06/30 18:33:09;;;;;;;2.50;1.00;;;;;;;16.61;77.66;100185.66;20665380;28;20053;-70
2021/06/30 18:43:11;;;;;;;1.90;1.10;;;;;;;16.62;81.10;100190.03;20665591;28;20054;-70
2021/06/30 18:53:13;;;;;;;2.00;1.13;;;;;;;16.37;81.87;100206.06;20666873;28;20109;-70
2021/06/30 19:03:15;;;;;;;2.75;1.40;;;;;;;16.16;81.58;100217.56;20657000;28;20545;-69
2021/06/30 19:13:17;;;;;;;3.22;1.20;;;;;;;15.80;82.36;100236.59;20665857;28;20050;-70
2021/06/30 19:23:19;;;;;;;3.42;1.70;;;;;;;15.50;83.84;100246.56;20665398;28;20061;-69
2021/06/30 19:33:21;;;;;;;3.75;1.80;;;;;;;15.53;83.23;100259.66;20662036;28;20394;-70
2021/06/30 19:43:23;;;;;;;3.17;1.58;;;;;;;15.39;83.66;100273.34;20660884;28;20097;-70
2021/06/30 19:53:25;;;;;;;5.32;1.75;;;;;;;15.19;83.91;100294.34;20660707;28;20493;-69
2021/06/30 20:03:26;;;;;;;8.48;2.30;;;;;;;15.34;83.43;100306.09;20659410;28;20081;-69
2021/06/30 20:13:28;;;;;;;4.43;2.35;;;;;;;15.27;84.33;100315.16;20659268;28;20468;-69
2021/06/30 20:23:48;;;;;;;5.15;2.97;;;;;;;15.16;84.50;100319.97;20577717;28;20093;-69
2021/06/30 20:33:51;;;;;;;6.07;3.70;;;;;;;15.17;83.99;100326.94;20577168;28;20069;-68
2021/06/30 20:43:53;;;;;;;12.07;4.60;;;;;;;14.97;85.94;100323.25;20589699;28;20412;-68
2021/06/30 20:53:54;;;;;;;7.78;4.65;;;;;;;14.88;85.27;100323.56;20649884;28;20100;-68
2021/06/30 21:03:56;;;;;;;8.38;4.38;;;;;;;14.78;85.56;100330.94;20658411;28;20081;-68
2021/06/30 21:13:58;;;;;;;10.82;4.75;;;;;;;14.74;85.21;100331.94;20670542;28;20109;-67
2021/06/30 21:23:59;;;;;;;11.18;5.28;;;;;;;14.73;85.78;100334.63;20670360;28;20476;-68
2021/06/30 21:34:01;;;;;;;8.52;5.30;;;;;;;14.67;86.14;100334.84;20669804;28;20106;-68
2021/06/30 21:44:11;;;;;;;7.82;5.07;;;;;;;14.56;86.71;100338.72;20690594;28;20074;-68
2021/06/30 21:54:12;;;;;;;8.40;4.82;;;;;;;14.58;86.06;100339.50;20677270;28;20140;-68
2021/06/30 22:04:14;;;;;;;9.43;4.97;;;;;;;14.47;86.30;100340.72;20667826;28;20053;-69
2021/06/30 22:14:16;;;;;;;9.75;5.05;;;;;;;14.43;86.43;100358.41;20660775;28;20046;-68
2021/06/30 22:24:17;;;;;;;8.68;4.78;;;;;;;14.44;87.05;100349.59;20661231;28;20497;-68
2021/06/30 22:34:19;;;;;;;6.50;4.35;;;;;;;14.45;86.33;100340.78;20660449;28;20050;-68
2021/06/30 22:44:21;;;;;;;7.70;4.70;;;;;;;14.33;86.93;100343.81;20660238;28;20386;-69
2021/06/30 22:54:22;;;;;;;10.85;5.03;;;;;;;14.37;86.26;100353.31;20648568;28;20097;-68
2021/06/30 23:04:27;;;;;;;8.10;4.30;;;;;;;14.24;86.96;100352.88;20656808;28;20054;-68
2021/06/30 23:14:29;;;;;;;13.37;4.30;;;;;;;14.38;86.48;100370.88;20660269;28;20047;-68
2021/06/30 23:24:30;;;;;;;9.77;5.10;;;;;;;14.26;86.91;100358.09;20618727;28;1035015;-68
2021/06/30 23:34:32;;;;;;;7.78;4.32;;;;;;;14.26;86.74;100352.81;20658478;28;20050;-68
2021/06/30 23:44:34;;;;;;;9.90;4.45;;;;;;;14.23;86.91;100351.16;20660309;28;20050;-68
2021/06/30 23:54:36;;;;;;;7.57;3.85;;;;;;;14.32;85.88;100344.72;20652676;28;20058;-69
